sensor_id;sensor_type;location;lat;lon;timestamp;pressure;altitude;pressure_sealevel;temperature;humidity
7532;BME280;3807;49.030;8.714;2022-10-04T00:01:11;100086.72;;;13.37;68.62
7532;BME280;3807;49.030;8.714;2022-10-04T00:03:42;100084.91;;;13.39;68.60
7532;BME280;3807;49.030;8.714;2022-10-04T00:06:20;100073.12;;;13.34;68.64
7532;BME280;3807;49.030;8.714;2022-10-04T00:11:25;100078.47;;;13.28;68.70
7532;BME280;3807;49.030;8.714;2022-10-04T00:13:56;100075.91;;;13.28;68.64
7532;BME280;3807;49.030;8.714;2022-10-04T00:16:29;100079.38;;;13.26;68.64
7532;BME280;3807;49.030;8.714;2022-10-04T00:24:30;100065.03;;;13.20;68.74
7532;BME280;3807;49.030;8.714;2022-10-04T00:29:40;100062.62;;;13.16;68.52
7532;BME280;3807;49.030;8.714;2022-10-04T00:36:59;100053.22;;;13.16;68.30
7532;BME280;3807;49.030;8.714;2022-10-04T00:39:36;100053.28;;;13.15;68.39
7532;BME280;3807;49.030;8.714;2022-10-04T00:52:56;100044.34;;;13.01;68.75
7532;BME280;3807;49.030;8.714;2022-10-04T00:55:45;100041.06;;;12.96;68.51
7532;BME280;3807;49.030;8.714;2022-10-04T00:58:26;100046.16;;;12.98;68.47
7532;BME280;3807;49.030;8.714;2022-10-04T01:00:54;100049.53;;;12.98;68.48
7532;BME280;3807;49.030;8.714;2022-10-04T01:03:27;100041.28;;;12.90;68.52
7532;BME280;3807;49.030;8.714;2022-10-04T01:05:57;100040.31;;;12.94;68.59
7532;BME280;3807;49.030;8.714;2022-10-04T01:08:37;100045.50;;;12.91;68.58
7532;BME280;3807;49.030;8.714;2022-10-04T01:11:25;100042.16;;;12.89;68.65
7532;BME280;3807;49.030;8.714;2022-10-04T01:13:58;100037.09;;;12.87;68.65
7532;BME280;3807;49.030;8.714;2022-10-04T01:16:27;100043.94;;;12.87;68.45
7532;BME280;3807;49.030;8.714;2022-10-04T01:18:54;100032.00;;;12.87;68.61
7532;BME280;3807;49.030;8.714;2022-10-04T01:28:59;100017.72;;;12.80;68.52
7532;BME280;3807;49.030;8.714;2022-10-04T01:31:25;100015.19;;;12.79;68.55
7532;BME280;3807;49.030;8.714;2022-10-04T01:33:52;100006.78;;;12.75;68.57
7532;BME280;3807;49.030;8.714;2022-10-04T01:36:18;100002.72;;;12.70;68.69
7532;BME280;3807;49.030;8.714;2022-10-04T01:38:44;100006.87;;;12.72;68.48
7532;BME280;3807;49.030;8.714;2022-10-04T01:41:12;100006.03;;;12.73;68.47
7532;BME280;3807;49.030;8.714;2022-10-04T01:43:41;99996.88;;;12.66;68.65
7532;BME280;3807;49.030;8.714;2022-10-04T01:46:24;99984.88;;;12.68;68.48
7532;BME280;3807;49.030;8.714;2022-10-04T01:48:51;99984.03;;;12.68;68.50
7532;BME280;3807;49.030;8.714;2022-10-04T01:51:30;99985.75;;;12.67;68.51
7532;BME280;3807;49.030;8.714;2022-10-04T01:54:10;99978.19;;;12.64;68.53
7532;BME280;3807;49.030;8.714;2022-10-04T01:56:43;99975.56;;;12.66;68.41
7532;BME280;3807;49.030;8.714;2022-10-04T01:59:15;99976.63;;;12.60;68.56
7532;BME280;3807;49.030;8.714;2022-10-04T02:01:47;99963.75;;;12.63;68.37
7532;BME280;3807;49.030;8.714;2022-10-04T02:04:16;99964.69;;;12.60;68.52
7532;BME280;3807;49.030;8.714;2022-10-04T02:06:44;99968.13;;;12.59;68.27
7532;BME280;3807;49.030;8.714;2022-10-04T02:09:19;99968.16;;;12.58;68.59
7532;BME280;3807;49.030;8.714;2022-10-04T02:11:48;99973.25;;;12.58;68.30
7532;BME280;3807;49.030;8.714;2022-10-04T02:14:21;99967.41;;;12.54;68.35
7532;BME280;3807;49.030;8.714;2022-10-04T02:16:49;99973.25;;;12.58;68.26
7532;BME280;3807;49.030;8.714;2022-10-04T02:19:21;99974.31;;;12.52;68.52
7532;BME280;3807;49.030;8.714;2022-10-04T02:21:48;99971.75;;;12.52;68.25
7532;BME280;3807;49.030;8.714;2022-10-04T02:24:14;99966.66;;;12.52;68.37
7532;BME280;3807;49.030;8.714;2022-10-04T02:26:41;99966.66;;;12.51;68.34
7532;BME280;3807;49.030;8.714;2022-10-04T02:29:08;99964.94;;;12.51;68.40
7532;BME280;3807;49.030;8.714;2022-10-04T02:31:36;99962.56;;;12.47;68.39
7532;BME280;3807;49.030;8.714;2022-10-04T02:34:21;99956.63;;;12.45;68.17
7532;BME280;3807;49.030;8.714;2022-10-04T02:36:47;99955.81;;;12.44;68.38
7532;BME280;3807;49.030;8.714;2022-10-04T02:39:19;99961.81;;;12.43;68.39
7532;BME280;3807;49.030;8.714;2022-10-04T02:41:52;99961.88;;;12.42;68.48
7532;BME280;3807;49.030;8.714;2022-10-04T02:44:28;99963.56;;;12.41;68.37
7532;BME280;3807;49.030;8.714;2022-10-04T02:47:20;99960.22;;;12.39;68.49
7532;BME280;3807;49.030;8.714;2022-10-04T02:49:51;99952.50;;;12.40;68.40
7532;BME280;3807;49.030;8.714;2022-10-04T02:52:30;99952.56;;;12.39;68.37
7532;BME280;3807;49.030;8.714;2022-10-04T02:55:02;99945.81;;;12.38;68.42
7532;BME280;3807;49.030;8.714;2022-10-04T02:57:32;99943.44;;;12.32;68.58
7532;BME280;3807;49.030;8.714;2022-10-04T03:00:13;99945.84;;;12.36;68.34
7532;BME280;3807;49.030;8.714;2022-10-04T03:02:42;99939.75;;;12.40;68.23
7532;BME280;3807;49.030;8.714;2022-10-04T03:05:27;99945.91;;;12.33;68.33
7532;BME280;3807;49.030;8.714;2022-10-04T03:07:53;99945.06;;;12.34;68.29
7532;BME280;3807;49.030;8.714;2022-10-04T03:10:18;99939.34;;;12.26;68.59
7532;BME280;3807;49.030;8.714;2022-10-04T03:12:49;99938.41;;;12.29;68.44
7532;BME280;3807;49.030;8.714;2022-10-04T03:15:15;99933.44;;;12.24;68.51
7532;BME280;3807;49.030;8.714;2022-10-04T03:17:42;99926.66;;;12.23;68.56
7532;BME280;3807;49.030;8.714;2022-10-04T03:20:09;99919.06;;;12.22;68.41
7532;BME280;3807;49.030;8.714;2022-10-04T03:22:39;99919.88;;;12.22;68.40
7532;BME280;3807;49.030;8.714;2022-10-04T03:25:08;99924.19;;;12.20;68.45
7532;BME280;3807;49.030;8.714;2022-10-04T03:27:41;99914.19;;;12.14;68.60
7532;BME280;3807;49.030;8.714;2022-10-04T03:30:12;99919.22;;;12.15;68.49
7532;BME280;3807;49.030;8.714;2022-10-04T03:32:38;99911.53;;;12.17;68.36
7532;BME280;3807;49.030;8.714;2022-10-04T03:35:06;99914.03;;;12.19;68.33
7532;BME280;3807;49.030;8.714;2022-10-04T03:37:35;99913.22;;;12.16;68.23
7532;BME280;3807;49.030;8.714;2022-10-04T03:40:02;99910.06;;;12.10;68.37
7532;BME280;3807;49.030;8.714;2022-10-04T03:42:31;99905.78;;;12.10;68.36
7532;BME280;3807;49.030;8.714;2022-10-04T03:45:11;99914.38;;;12.08;68.34
7532;BME280;3807;49.030;8.714;2022-10-04T03:47:43;99918.72;;;12.04;68.49
7532;BME280;3807;49.030;8.714;2022-10-04T03:50:17;99916.09;;;12.06;68.40
7532;BME280;3807;49.030;8.714;2022-10-04T03:52:49;99912.81;;;12.02;68.36
7532;BME280;3807;49.030;8.714;2022-10-04T03:55:16;99919.63;;;12.03;68.31
7532;BME280;3807;49.030;8.714;2022-10-04T03:57:42;99919.47;;;12.08;68.07
7532;BME280;3807;49.030;8.714;2022-10-04T04:00:08;99914.50;;;12.03;68.23
7532;BME280;3807;49.030;8.714;2022-10-04T04:02:43;99910.16;;;12.05;68.17
7532;BME280;3807;49.030;8.714;2022-10-04T04:08:32;99919.66;;;12.02;68.29
7532;BME280;3807;49.030;8.714;2022-10-04T04:11:01;99923.13;;;11.99;68.30
7532;BME280;3807;49.030;8.714;2022-10-04T04:13:41;99921.44;;;11.98;68.31
7532;BME280;3807;49.030;8.714;2022-10-04T04:16:09;99924.00;;;11.98;68.37
7532;BME280;3807;49.030;8.714;2022-10-04T04:18:37;99914.81;;;11.93;68.37
7532;BME280;3807;49.030;8.714;2022-10-04T04:21:05;99924.97;;;11.94;68.35
7532;BME280;3807;49.030;8.714;2022-10-04T04:23:43;99921.50;;;11.97;68.00
7532;BME280;3807;49.030;8.714;2022-10-04T04:26:47;99918.31;;;11.88;68.28
7532;BME280;3807;49.030;8.714;2022-10-04T04:29:50;99920.78;;;11.91;68.17
7532;BME280;3807;49.030;8.714;2022-10-04T04:32:17;99924.31;;;11.87;68.34
7532;BME280;3807;49.030;8.714;2022-10-04T04:35:05;99931.97;;;11.87;68.16
7532;BME280;3807;49.030;8.714;2022-10-04T04:37:36;99927.00;;;11.81;68.29
7532;BME280;3807;49.030;8.714;2022-10-04T04:40:23;99926.97;;;11.84;68.21
7532;BME280;3807;49.030;8.714;2022-10-04T04:42:50;99928.81;;;11.78;68.17
7532;BME280;3807;49.030;8.714;2022-10-04T04:45:19;99934.66;;;11.81;68.24
7532;BME280;3807;49.030;8.714;2022-10-04T04:47:48;99940.75;;;11.77;68.31
7532;BME280;3807;49.030;8.714;2022-10-04T04:50:17;99938.25;;;11.76;68.41
7532;BME280;3807;49.030;8.714;2022-10-04T04:52:46;99933.09;;;11.77;68.30
7532;BME280;3807;49.030;8.714;2022-10-04T04:55:19;99934.88;;;11.75;68.14
7532;BME280;3807;49.030;8.714;2022-10-04T04:57:46;99938.28;;;11.74;68.27
7532;BME280;3807;49.030;8.714;2022-10-04T05:00:17;99936.53;;;11.76;68.06
7532;BME280;3807;49.030;8.714;2022-10-04T05:02:50;99932.19;;;11.78;68.13
7532;BME280;3807;49.030;8.714;2022-10-04T05:05:19;99928.88;;;11.76;68.11
7532;BME280;3807;49.030;8.714;2022-10-04T05:07:46;99934.88;;;11.74;68.22
7532;BME280;3807;49.030;8.714;2022-10-04T05:10:28;99932.41;;;11.71;68.19
7532;BME280;3807;49.030;8.714;2022-10-04T05:12:58;99932.56;;;11.66;68.34
7532;BME280;3807;49.030;8.714;2022-10-04T05:15:25;99932.69;;;11.61;68.18
7532;BME280;3807;49.030;8.714;2022-10-04T05:17:52;99930.91;;;11.65;68.29
7532;BME280;3807;49.030;8.714;2022-10-04T05:20:17;99930.09;;;11.63;68.61
7532;BME280;3807;49.030;8.714;2022-10-04T05:22:46;99936.53;;;11.45;69.17
7532;BME280;3807;49.030;8.714;2022-10-04T05:25:24;99946.81;;;11.42;69.42
7532;BME280;3807;49.030;8.714;2022-10-04T05:27:52;99947.25;;;11.58;68.88
7532;BME280;3807;49.030;8.714;2022-10-04T05:33:04;99956.59;;;11.57;68.63
7532;BME280;3807;49.030;8.714;2022-10-04T05:36:08;99955.00;;;11.55;68.54
7532;BME280;3807;49.030;8.714;2022-10-04T05:38:54;99955.00;;;11.55;68.32
7532;BME280;3807;49.030;8.714;2022-10-04T05:42:04;99952.53;;;11.50;68.70
7532;BME280;3807;49.030;8.714;2022-10-04T05:44:45;99960.94;;;11.54;68.34
7532;BME280;3807;49.030;8.714;2022-10-04T05:47:13;99956.81;;;11.50;68.67
7532;BME280;3807;49.030;8.714;2022-10-04T05:49:42;99958.50;;;11.51;68.35
7532;BME280;3807;49.030;8.714;2022-10-04T05:52:27;99960.31;;;11.45;68.52
7532;BME280;3807;49.030;8.714;2022-10-04T05:55:40;99964.44;;;11.51;68.47
7532;BME280;3807;49.030;8.714;2022-10-04T05:58:44;99963.78;;;11.43;68.64
7532;BME280;3807;49.030;8.714;2022-10-04T06:01:29;99960.31;;;11.47;68.40
7532;BME280;3807;49.030;8.714;2022-10-04T06:05:00;99959.66;;;11.39;68.25
7532;BME280;3807;49.030;8.714;2022-10-04T06:10:36;99959.66;;;11.39;68.66
7532;BME280;3807;49.030;8.714;2022-10-04T06:15:54;99956.50;;;11.29;69.09
7532;BME280;3807;49.030;8.714;2022-10-04T06:19:08;99952.63;;;11.14;69.63
7532;BME280;3807;49.030;8.714;2022-10-04T06:21:59;99946.47;;;11.23;69.39
7532;BME280;3807;49.030;8.714;2022-10-04T06:24:31;99939.59;;;11.27;69.24
7532;BME280;3807;49.030;8.714;2022-10-04T06:27:03;99938.78;;;11.25;69.24
7532;BME280;3807;49.030;8.714;2022-10-04T06:29:38;99943.06;;;11.23;69.30
7532;BME280;3807;49.030;8.714;2022-10-04T06:38:26;99944.75;;;11.24;69.35
7532;BME280;3807;49.030;8.714;2022-10-04T06:46:49;99951.44;;;11.28;69.20
7532;BME280;3807;49.030;8.714;2022-10-04T06:49:32;99950.72;;;11.23;69.37
7532;BME280;3807;49.030;8.714;2022-10-04T06:52:09;99950.78;;;11.21;69.35
7532;BME280;3807;49.030;8.714;2022-10-04T06:59:45;99958.91;;;11.35;68.97
7532;BME280;3807;49.030;8.714;2022-10-04T07:02:45;99952.19;;;11.31;68.92
7532;BME280;3807;49.030;8.714;2022-10-04T07:05:45;99972.53;;;11.34;68.85
7532;BME280;3807;49.030;8.714;2022-10-04T07:08:29;99968.47;;;11.27;69.33
7532;BME280;3807;49.030;8.714;2022-10-04T07:11:04;99977.03;;;11.25;69.32
7532;BME280;3807;49.030;8.714;2022-10-04T07:16:31;99976.94;;;11.28;69.37
7532;BME280;3807;49.030;8.714;2022-10-04T07:22:09;99989.41;;;11.38;68.99
7532;BME280;3807;49.030;8.714;2022-10-04T07:27:16;99992.13;;;11.32;69.18
7532;BME280;3807;49.030;8.714;2022-10-04T07:29:45;99995.41;;;11.37;69.12
7532;BME280;3807;49.030;8.714;2022-10-04T07:32:20;99992.94;;;11.34;69.16
7532;BME280;3807;49.030;8.714;2022-10-04T07:35:15;99992.66;;;11.43;68.83
7532;BME280;3807;49.030;8.714;2022-10-04T07:40:32;99984.09;;;11.46;68.79
7532;BME280;3807;49.030;8.714;2022-10-04T07:43:18;99993.63;;;11.41;69.00
7532;BME280;3807;49.030;8.714;2022-10-04T07:45:46;99997.31;;;11.62;70.53
7532;BME280;3807;49.030;8.714;2022-10-04T07:48:14;99992.78;;;12.03;69.16
7532;BME280;3807;49.030;8.714;2022-10-04T07:53:41;99986.78;;;12.33;68.04
7532;BME280;3807;49.030;8.714;2022-10-04T07:56:17;99975.41;;;12.44;67.67
7532;BME280;3807;49.030;8.714;2022-10-04T08:02:12;99984.44;;;12.55;67.51
7532;BME280;3807;49.030;8.714;2022-10-04T08:05:34;99980.69;;;12.66;67.27
7532;BME280;3807;49.030;8.714;2022-10-04T08:08:24;99982.12;;;12.74;67.00
7532;BME280;3807;49.030;8.714;2022-10-04T08:11:14;99992.25;;;12.77;66.94
7532;BME280;3807;49.030;8.714;2022-10-04T08:13:52;99994.31;;;12.93;66.48
7532;BME280;3807;49.030;8.714;2022-10-04T08:16:40;99995.06;;;12.96;66.44
7532;BME280;3807;49.030;8.714;2022-10-04T08:19:29;99981.69;;;12.88;66.89
7532;BME280;3807;49.030;8.714;2022-10-04T08:31:06;100004.28;;;13.00;67.01
7532;BME280;3807;49.030;8.714;2022-10-04T08:39:16;99992.72;;;12.62;69.73
7532;BME280;3807;49.030;8.714;2022-10-04T08:50:57;99992.41;;;12.99;67.78
7532;BME280;3807;49.030;8.714;2022-10-04T09:02:15;99980.69;;;13.19;67.35
7532;BME280;3807;49.030;8.714;2022-10-04T09:16:13;99982.91;;;13.29;68.61
7532;BME280;3807;49.030;8.714;2022-10-04T09:19:03;99973.44;;;13.31;67.91
7532;BME280;3807;49.030;8.714;2022-10-04T09:32:47;99973.50;;;13.55;67.84
7532;BME280;3807;49.030;8.714;2022-10-04T09:35:40;99982.00;;;13.55;68.06
7532;BME280;3807;49.030;8.714;2022-10-04T09:44:14;99969.28;;;13.77;67.70
7532;BME280;3807;49.030;8.714;2022-10-04T10:07:12;99980.63;;;13.94;68.71
7532;BME280;3807;49.030;8.714;2022-10-04T10:09:57;99976.69;;;14.09;68.23
7532;BME280;3807;49.030;8.714;2022-10-04T10:26:32;99967.47;;;14.48;67.33
7532;BME280;3807;49.030;8.714;2022-10-04T10:29:24;99959.75;;;14.72;67.22
7532;BME280;3807;49.030;8.714;2022-10-04T10:37:49;99966.75;;;14.89;66.17
7532;BME280;3807;49.030;8.714;2022-10-04T10:40:33;99968.72;;;14.82;66.19
7532;BME280;3807;49.030;8.714;2022-10-04T10:46:04;99968.47;;;15.09;65.52
7532;BME280;3807;49.030;8.714;2022-10-04T11:00:21;99951.06;;;15.56;64.97
7532;BME280;3807;49.030;8.714;2022-10-04T11:25:34;99931.72;;;16.42;63.32
7532;BME280;3807;49.030;8.714;2022-10-04T11:41:58;99919.00;;;17.10;62.18
7532;BME280;3807;49.030;8.714;2022-10-04T11:56:00;99898.41;;;17.43;62.10
7532;BME280;3807;49.030;8.714;2022-10-04T12:21:01;99898.34;;;18.40;62.28
7532;BME280;3807;49.030;8.714;2022-10-04T12:26:43;99892.25;;;18.71;61.80
7532;BME280;3807;49.030;8.714;2022-10-04T12:31:56;99887.06;;;18.87;62.00
7532;BME280;3807;49.030;8.714;2022-10-04T12:39:56;99880.63;;;18.94;61.93
7532;BME280;3807;49.030;8.714;2022-10-04T12:42:54;99878.34;;;19.18;61.16
7532;BME280;3807;49.030;8.714;2022-10-04T12:48:19;99870.41;;;19.35;61.00
7532;BME280;3807;49.030;8.714;2022-10-04T12:53:16;99867.12;;;19.60;60.38
7532;BME280;3807;49.030;8.714;2022-10-04T12:56:03;99868.78;;;19.61;60.10
7532;BME280;3807;49.030;8.714;2022-10-04T12:58:44;99865.44;;;19.88;59.78
7532;BME280;3807;49.030;8.714;2022-10-04T13:04:17;99865.06;;;19.80;59.61
7532;BME280;3807;49.030;8.714;2022-10-04T13:06:56;99861.47;;;19.82;59.65
7532;BME280;3807;49.030;8.714;2022-10-04T13:14:58;99859.25;;;20.30;58.24
7532;BME280;3807;49.030;8.714;2022-10-04T13:17:53;99860.72;;;20.34;58.21
7532;BME280;3807;49.030;8.714;2022-10-04T13:31:29;99861.56;;;20.48;58.17
7532;BME280;3807;49.030;8.714;2022-10-04T13:34:18;99856.03;;;20.54;58.25
7532;BME280;3807;49.030;8.714;2022-10-04T13:44:43;99859.75;;;20.62;58.34
7532;BME280;3807;49.030;8.714;2022-10-04T13:47:40;99848.25;;;20.66;57.64
7532;BME280;3807;49.030;8.714;2022-10-04T13:56:14;99842.91;;;20.82;58.47
7532;BME280;3807;49.030;8.714;2022-10-04T14:10:15;99835.22;;;21.06;57.40
7532;BME280;3807;49.030;8.714;2022-10-04T14:33:35;99814.25;;;21.35;56.97
7532;BME280;3807;49.030;8.714;2022-10-04T14:39:57;99817.03;;;21.32;57.19
7532;BME280;3807;49.030;8.714;2022-10-04T14:42:16;99810.50;;;21.26;57.59
7532;BME280;3807;49.030;8.714;2022-10-04T14:45:30;99806.75;;;21.30;56.79
7532;BME280;3807;49.030;8.714;2022-10-04T15:00:21;99796.16;;;21.59;56.68
7532;BME280;3807;49.030;8.714;2022-10-04T15:08:40;99802.97;;;21.60;56.43
7532;BME280;3807;49.030;8.714;2022-10-04T15:11:16;99790.78;;;21.49;56.37
7532;BME280;3807;49.030;8.714;2022-10-04T15:13:50;99790.66;;;21.51;56.63
7532;BME280;3807;49.030;8.714;2022-10-04T15:30:16;99787.31;;;21.61;55.21
7532;BME280;3807;49.030;8.714;2022-10-04T15:38:28;99793.34;;;21.62;56.99
7532;BME280;3807;49.030;8.714;2022-10-04T15:41:05;99791.88;;;21.58;57.53
7532;BME280;3807;49.030;8.714;2022-10-04T15:43:41;99790.50;;;21.65;55.31
7532;BME280;3807;49.030;8.714;2022-10-04T15:54:45;99764.75;;;21.75;55.83
7532;BME280;3807;49.030;8.714;2022-10-04T15:59:50;99761.16;;;21.64;57.67
7532;BME280;3807;49.030;8.714;2022-10-04T16:05:24;99768.62;;;21.69;57.81
7532;BME280;3807;49.030;8.714;2022-10-04T16:19:13;99764.87;;;21.49;58.01
7532;BME280;3807;49.030;8.714;2022-10-04T16:22:07;99765.34;;;21.54;56.77
7532;BME280;3807;49.030;8.714;2022-10-04T16:24:43;99771.41;;;21.55;58.35
7532;BME280;3807;49.030;8.714;2022-10-04T16:27:54;99768.28;;;21.50;58.96
7532;BME280;3807;49.030;8.714;2022-10-04T16:33:23;99776.06;;;21.50;57.40
7532;BME280;3807;49.030;8.714;2022-10-04T16:36:04;99772.03;;;21.46;58.45
7532;BME280;3807;49.030;8.714;2022-10-04T16:38:35;99778.25;;;21.43;58.11
7532;BME280;3807;49.030;8.714;2022-10-04T16:41:41;99777.94;;;21.48;57.83
7532;BME280;3807;49.030;8.714;2022-10-04T16:44:28;99781.69;;;21.44;56.82
7532;BME280;3807;49.030;8.714;2022-10-04T16:46:59;99777.16;;;21.34;58.10
7532;BME280;3807;49.030;8.714;2022-10-04T16:49:47;99782.00;;;21.26;58.35
7532;BME280;3807;49.030;8.714;2022-10-04T16:52:43;99783.78;;;21.26;58.39
7532;BME280;3807;49.030;8.714;2022-10-04T17:12:21;99754.66;;;20.85;58.35
7532;BME280;3807;49.030;8.714;2022-10-04T17:15:10;99761.91;;;20.80;58.45
7532;BME280;3807;49.030;8.714;2022-10-04T17:17:55;99750.94;;;20.77;58.50
7532;BME280;3807;49.030;8.714;2022-10-04T17:20:43;99753.72;;;20.74;58.33
7532;BME280;3807;49.030;8.714;2022-10-04T17:28:29;99741.53;;;20.63;58.61
7532;BME280;3807;49.030;8.714;2022-10-04T17:31:14;99749.81;;;20.55;58.58
7532;BME280;3807;49.030;8.714;2022-10-04T17:33:58;99741.53;;;20.50;58.73
7532;BME280;3807;49.030;8.714;2022-10-04T17:36:37;99746.16;;;20.45;58.70
7532;BME280;3807;49.030;8.714;2022-10-04T17:44:45;99760.78;;;20.33;58.83
7532;BME280;3807;49.030;8.714;2022-10-04T17:50:29;99772.66;;;20.23;58.55
7532;BME280;3807;49.030;8.714;2022-10-04T17:53:23;99772.97;;;20.31;60.07
7532;BME280;3807;49.030;8.714;2022-10-04T17:56:10;99760.25;;;20.15;59.19
7532;BME280;3807;49.030;8.714;2022-10-04T17:58:39;99758.56;;;20.02;59.05
7532;BME280;3807;49.030;8.714;2022-10-04T18:01:16;99767.34;;;19.99;59.16
7532;BME280;3807;49.030;8.714;2022-10-04T18:03:51;99765.88;;;20.08;60.31
7532;BME280;3807;49.030;8.714;2022-10-04T18:06:28;99771.56;;;20.00;59.36
7532;BME280;3807;49.030;8.714;2022-10-04T18:08:58;99788.22;;;19.96;60.73
7532;BME280;3807;49.030;8.714;2022-10-04T18:14:19;99796.47;;;19.88;59.84
7532;BME280;3807;49.030;8.714;2022-10-04T18:22:07;99784.09;;;19.52;59.73
7532;BME280;3807;49.030;8.714;2022-10-04T18:24:34;99786.16;;;19.47;59.52
7532;BME280;3807;49.030;8.714;2022-10-04T18:27:09;99792.25;;;19.46;59.72
7532;BME280;3807;49.030;8.714;2022-10-04T18:29:44;99795.03;;;19.43;59.58
7532;BME280;3807;49.030;8.714;2022-10-04T18:34:57;99796.06;;;19.26;60.01
7532;BME280;3807;49.030;8.714;2022-10-04T18:37:34;99794.31;;;19.26;59.85
7532;BME280;3807;49.030;8.714;2022-10-04T18:40:18;99798.47;;;19.29;59.93
7532;BME280;3807;49.030;8.714;2022-10-04T18:42:57;99788.13;;;19.29;59.98
7532;BME280;3807;49.030;8.714;2022-10-04T18:45:28;99790.44;;;19.19;59.97
7532;BME280;3807;49.030;8.714;2022-10-04T18:47:55;99792.75;;;19.10;60.09
7532;BME280;3807;49.030;8.714;2022-10-04T18:50:30;99798.09;;;19.07;60.04
7532;BME280;3807;49.030;8.714;2022-10-04T18:55:59;99797.00;;;18.96;60.36
7532;BME280;3807;49.030;8.714;2022-10-04T19:01:48;99799.03;;;18.91;60.39
7532;BME280;3807;49.030;8.714;2022-10-04T19:10:45;99807.28;;;18.68;61.40
7532;BME280;3807;49.030;8.714;2022-10-04T19:16:14;99818.87;;;18.61;61.47
7532;BME280;3807;49.030;8.714;2022-10-04T19:24:58;99826.94;;;18.40;61.43
7532;BME280;3807;49.030;8.714;2022-10-04T19:27:51;99823.88;;;18.33;61.78
7532;BME280;3807;49.030;8.714;2022-10-04T19:30:38;99828.31;;;18.31;61.43
7532;BME280;3807;49.030;8.714;2022-10-04T19:33:16;99826.19;;;18.24;61.70
7532;BME280;3807;49.030;8.714;2022-10-04T19:38:42;99835.09;;;18.18;61.76
7532;BME280;3807;49.030;8.714;2022-10-04T19:44:09;99843.44;;;18.07;61.89
7532;BME280;3807;49.030;8.714;2022-10-04T19:46:41;99846.28;;;18.03;61.98
7532;BME280;3807;49.030;8.714;2022-10-04T19:52:21;99851.94;;;17.94;62.73
7532;BME280;3807;49.030;8.714;2022-10-04T19:54:51;99849.69;;;17.88;62.39
7532;BME280;3807;49.030;8.714;2022-10-04T19:57:43;99857.41;;;17.88;62.57
7532;BME280;3807;49.030;8.714;2022-10-04T20:00:12;99862.66;;;17.86;62.59
7532;BME280;3807;49.030;8.714;2022-10-04T20:02:41;99868.97;;;17.80;62.79
7532;BME280;3807;49.030;8.714;2022-10-04T20:05:13;99875.50;;;17.70;62.58
7532;BME280;3807;49.030;8.714;2022-10-04T20:07:39;99878.06;;;17.70;62.94
7532;BME280;3807;49.030;8.714;2022-10-04T20:10:28;99879.06;;;17.68;62.48
7532;BME280;3807;49.030;8.714;2022-10-04T20:26:03;99884.44;;;17.31;63.81
7532;BME280;3807;49.030;8.714;2022-10-04T20:31:05;99893.47;;;17.23;64.47
7532;BME280;3807;49.030;8.714;2022-10-04T20:36:03;99887.66;;;17.19;64.57
7532;BME280;3807;49.030;8.714;2022-10-04T20:38:46;99887.88;;;17.14;64.62
7532;BME280;3807;49.030;8.714;2022-10-04T20:43:54;99890.16;;;17.03;64.87
7532;BME280;3807;49.030;8.714;2022-10-04T20:46:30;99895.72;;;16.96;65.12
7532;BME280;3807;49.030;8.714;2022-10-04T20:49:00;99899.28;;;16.93;65.17
7532;BME280;3807;49.030;8.714;2022-10-04T20:51:26;99896.84;;;16.90;65.16
7532;BME280;3807;49.030;8.714;2022-10-04T20:53:54;99895.34;;;16.86;65.20
7532;BME280;3807;49.030;8.714;2022-10-04T20:58:54;99896.31;;;16.83;65.06
7532;BME280;3807;49.030;8.714;2022-10-04T21:01:27;99900.19;;;16.75;65.30
7532;BME280;3807;49.030;8.714;2022-10-04T21:06:57;99902.13;;;16.70;65.35
7532;BME280;3807;49.030;8.714;2022-10-04T21:09:24;99909.25;;;16.64;65.18
7532;BME280;3807;49.030;8.714;2022-10-04T21:11:53;99917.25;;;16.58;65.54
7532;BME280;3807;49.030;8.714;2022-10-04T21:14:35;99918.97;;;16.58;65.47
7532;BME280;3807;49.030;8.714;2022-10-04T21:17:04;99915.66;;;16.56;65.37
7532;BME280;3807;49.030;8.714;2022-10-04T21:19:47;99915.09;;;16.49;65.55
7532;BME280;3807;49.030;8.714;2022-10-04T21:29:52;99910.56;;;16.37;65.58
7532;BME280;3807;49.030;8.714;2022-10-04T21:32:18;99900.44;;;16.34;65.76
7532;BME280;3807;49.030;8.714;2022-10-04T21:34:44;99915.13;;;16.32;65.68
7532;BME280;3807;49.030;8.714;2022-10-04T21:37:09;99905.72;;;16.31;65.64
7532;BME280;3807;49.030;8.714;2022-10-04T21:39:35;99909.34;;;16.27;65.75
7532;BME280;3807;49.030;8.714;2022-10-04T21:42:00;99902.53;;;16.26;65.68
7532;BME280;3807;49.030;8.714;2022-10-04T21:44:25;99905.47;;;16.18;65.86
7532;BME280;3807;49.030;8.714;2022-10-04T21:46:51;99907.38;;;16.14;65.89
7532;BME280;3807;49.030;8.714;2022-10-04T21:49:16;99908.19;;;16.15;65.77
7532;BME280;3807;49.030;8.714;2022-10-04T21:51:41;99902.50;;;16.08;66.02
7532;BME280;3807;49.030;8.714;2022-10-04T21:54:07;99905.97;;;16.07;66.08
7532;BME280;3807;49.030;8.714;2022-10-04T21:56:32;99893.41;;;16.01;66.18
7532;BME280;3807;49.030;8.714;2022-10-04T21:58:57;99890.75;;;16.03;66.22
7532;BME280;3807;49.030;8.714;2022-10-04T22:01:23;99887.72;;;15.94;66.35
7532;BME280;3807;49.030;8.714;2022-10-04T22:03:49;99888.66;;;15.93;66.31
7532;BME280;3807;49.030;8.714;2022-10-04T22:06:15;99883.66;;;15.90;66.50
7532;BME280;3807;49.030;8.714;2022-10-04T22:08:40;99883.09;;;15.84;66.59
7532;BME280;3807;49.030;8.714;2022-10-04T22:11:07;99879.84;;;15.80;66.73
7532;BME280;3807;49.030;8.714;2022-10-04T22:13:33;99875.56;;;15.79;66.79
7532;BME280;3807;49.030;8.714;2022-10-04T22:15:58;99880.09;;;15.74;66.84
7532;BME280;3807;49.030;8.714;2022-10-04T22:18:24;99863.09;;;15.71;66.74
7532;BME280;3807;49.030;8.714;2022-10-04T22:20:49;99865.88;;;15.67;67.15
7532;BME280;3807;49.030;8.714;2022-10-04T22:23:23;99865.06;;;15.65;67.01
7532;BME280;3807;49.030;8.714;2022-10-04T22:25:50;99872.31;;;15.57;67.19
7532;BME280;3807;49.030;8.714;2022-10-04T22:28:27;99872.44;;;15.54;67.30
7532;BME280;3807;49.030;8.714;2022-10-04T22:30:53;99873.41;;;15.51;67.15
7532;BME280;3807;49.030;8.714;2022-10-04T22:33:37;99878.75;;;15.46;67.31
7532;BME280;3807;49.030;8.714;2022-10-04T22:36:34;99877.00;;;15.47;67.26
7532;BME280;3807;49.030;8.714;2022-10-04T22:44:21;99867.19;;;15.38;67.32
7532;BME280;3807;49.030;8.714;2022-10-04T22:46:51;99861.34;;;15.34;67.39
7532;BME280;3807;49.030;8.714;2022-10-04T22:49:20;99867.44;;;15.32;67.48
7532;BME280;3807;49.030;8.714;2022-10-04T22:51:48;99857.31;;;15.29;67.58
7532;BME280;3807;49.030;8.714;2022-10-04T22:54:17;99863.34;;;15.28;67.49